Lake Dynasty — 3FZB2 — position and weather

sailwx.info

Track history (hours):
 
Tides and Currents Weather Stations Pressure Air Temp Water Temp Dewpoint Dewpoint Depression Visibility Wind Speed Wind Dir Waves Ship Positions

Lake Dynasty

Last reported at 2016-Dec-20 07:29 UTC. Time now 2017-Jan-21 08:46 UTC.
Position N 29°56' W 089°59'.
Warning: this ship's position is 32 days out of date.

Length 182 m; draft 11.8 m.

Type: Cargo ship. MMSI: 370957000.

Date/timePositionNaut miles runAvg speedWind from/ knotsBaromVisibWave heightAir tempDewpointWater temp
2016-Dec-20 07:29N 29°56' W 089°59'7 7.5
2016-Dec-20 06:33N 29°55' W 090°07'7 6.7
2016-Dec-20 05:33N 29°58' W 090°14'6 0.2
2016-Dec-18 12:30N 29°56' W 090°21'0 0.0
2016-Dec-18 11:24N 29°56' W 090°21'0 0.0
2016-Dec-17 19:33N 29°56' W 090°21'4 4.2
2016-Dec-17 18:33N 29°60' W 090°25'  
2016-Dec-14 13:29N 29°60' W 090°27'0 0.0
2016-Dec-14 11:08N 29°60' W 090°27'0 0.0
2016-Dec-14 06:20N 29°60' W 090°27'0 0.0
2016-Dec-14 05:32N 29°60' W 090°27'0 0.0
2016-Dec-14 04:32N 29°60' W 090°27'0 0.0
2016-Dec-13 17:14N 29°60' W 090°27'  
2016-Dec-11 11:17N 29°60' W 090°27'0 0.0
2016-Dec-11 10:14N 29°60' W 090°27'0 0.0
2016-Dec-11 09:26N 29°60' W 090°27'  
Track history (hours):
 
Tides and Currents Weather Stations Pressure Air Temp Water Temp Dewpoint Dewpoint Depression Visibility Wind Speed Wind Dir Waves Ship Positions

Lake Dynasty

Last reported at 2016-Dec-20 07:29 UTC. Time now 2017-Jan-21 08:46 UTC.
Position N 29°56' W 089°59'.
Warning: this ship's position is 32 days out of date.

Length 182 m; draft 11.8 m.

Type: Cargo ship. MMSI: 370957000.

Date/timePositionNaut miles runAvg speedWind from/ knotsBaromVisibWave heightAir tempDewpointWater temp
2016-Dec-20 07:29N 29°56' W 089°59'7 7.5
2016-Dec-20 06:33N 29°55' W 090°07'7 6.7
2016-Dec-20 05:33N 29°58' W 090°14'6 0.2
2016-Dec-18 12:30N 29°56' W 090°21'0 0.0
2016-Dec-18 11:24N 29°56' W 090°21'0 0.0
2016-Dec-17 19:33N 29°56' W 090°21'4 4.2
2016-Dec-17 18:33N 29°60' W 090°25'  
2016-Dec-14 13:29N 29°60' W 090°27'0 0.0
2016-Dec-14 11:08N 29°60' W 090°27'0 0.0
2016-Dec-14 06:20N 29°60' W 090°27'0 0.0
2016-Dec-14 05:32N 29°60' W 090°27'0 0.0
2016-Dec-14 04:32N 29°60' W 090°27'0 0.0
2016-Dec-13 17:14N 29°60' W 090°27'  
2016-Dec-11 11:17N 29°60' W 090°27'0 0.0
2016-Dec-11 10:14N 29°60' W 090°27'0 0.0
2016-Dec-11 09:26N 29°60' W 090°27'  

Dump ship's entire track history